Time;durP1;ratioP1;P1;durP2;ratioP2;P2;SDS_P1;SDS_P2;PMS_P1;PMS_P2;Temp;Humidity;BMP_temperature;BMP_pressure;BME280_temperature;BME280_humidity;BME280_pressure;Samples;Min_cycle;Max_cycle;Signal;HPM_P1;HPM_P2
2022/11/02 00:00:10;;;;;;;;;;;22.50;47.00;;;;;;475123;251;2168;-53
2022/11/02 00:02:12;;;;;;;;;;;22.50;47.00;;;;;;475109;251;1269;-52
2022/11/02 00:04:13;;;;;;;;;;;22.50;47.00;;;;;;475105;251;1349;-52
2022/11/02 00:06:14;;;;;;;;;;;22.50;47.00;;;;;;474989;251;1261;-51
2022/11/02 00:08:16;;;;;;;;;;;22.50;47.00;;;;;;474801;251;1322;-52
2022/11/02 00:10:17;;;;;;;;;;;22.50;47.00;;;;;;474651;251;1305;-52
2022/11/02 00:12:18;;;;;;;;;;;22.50;47.00;;;;;;474690;251;1357;-52
2022/11/02 00:14:20;;;;;;;;;;;22.60;47.00;;;;;;475048;251;1377;-52
2022/11/02 00:16:21;;;;;;;;;;;22.50;47.00;;;;;;475090;251;1473;-52
2022/11/02 00:18:22;;;;;;;;;;;22.50;47.00;;;;;;475089;251;1350;-52
2022/11/02 00:20:25;;;;;;;;;;;22.50;47.00;;;;;;475084;251;2188;-52
2022/11/02 00:22:26;;;;;;;;;;;22.50;47.00;;;;;;475054;251;1252;-53
2022/11/02 00:24:27;;;;;;;;;;;22.50;47.00;;;;;;475133;251;1219;-52
2022/11/02 00:26:29;;;;;;;;;;;22.60;47.00;;;;;;474648;251;1136;-52
2022/11/02 00:28:30;;;;;;;;;;;22.50;47.00;;;;;;475101;251;1227;-52
2022/11/02 00:30:31;;;;;;;;;;;22.50;47.10;;;;;;474711;251;1188;-52
2022/11/02 00:32:33;;;;;;;;;;;22.50;47.00;;;;;;474911;251;1209;-52
2022/11/02 00:34:34;;;;;;;;;;;22.50;47.00;;;;;;474983;251;1116;-52
2022/11/02 00:36:35;;;;;;;;;;;22.50;47.00;;;;;;474841;251;1199;-52
2022/11/02 00:38:37;;;;;;;;;;;22.50;47.00;;;;;;475102;251;1246;-52
2022/11/02 00:40:38;;;;;;;;;;;22.50;47.10;;;;;;474725;251;2205;-52
2022/11/02 00:42:39;;;;;;;;;;;22.50;47.10;;;;;;474665;251;1459;-52
2022/11/02 00:44:41;;;;;;;;;;;22.50;47.10;;;;;;475100;251;1262;-52
2022/11/02 00:46:42;;;;;;;;;;;22.50;47.00;;;;;;474676;251;1212;-53
2022/11/02 00:48:43;;;;;;;;;;;22.50;47.00;;;;;;475106;251;1248;-52
2022/11/02 00:50:45;;;;;;;;;;;22.50;47.00;;;;;;475109;251;1208;-52
2022/11/02 00:52:46;;;;;;;;;;;22.50;47.10;;;;;;474950;251;1275;-52
2022/11/02 00:54:47;;;;;;;;;;;22.50;47.10;;;;;;475092;251;1196;-52
2022/11/02 00:56:49;;;;;;;;;;;22.50;47.10;;;;;;475074;251;1211;-52
2022/11/02 00:58:50;;;;;;;;;;;22.50;47.10;;;;;;474677;251;1228;-52
2022/11/02 01:00:52;;;;;;;;;;;22.50;47.10;;;;;;474654;251;2201;-52
2022/11/02 01:02:53;;;;;;;;;;;22.50;47.10;;;;;;474651;251;1288;-52
2022/11/02 01:04:54;;;;;;;;;;;22.50;47.10;;;;;;475093;251;1283;-52
2022/11/02 01:06:55;;;;;;;;;;;22.50;47.10;;;;;;475069;251;1389;-52
2022/11/02 01:08:57;;;;;;;;;;;22.50;47.10;;;;;;474659;251;1210;-52
2022/11/02 01:10:58;;;;;;;;;;;22.50;47.10;;;;;;474645;251;1381;-52
2022/11/02 01:12:59;;;;;;;;;;;22.50;47.10;;;;;;474860;251;1188;-52
2022/11/02 01:15:02;;;;;;;;;;;22.50;47.10;;;;;;475051;251;1280;-52
2022/11/02 01:17:03;;;;;;;;;;;22.50;47.00;;;;;;474611;251;1994;-52
2022/11/02 01:19:03;;;;;;;;;;;22.60;47.10;;;;;;474945;251;1943;-52
2022/11/02 01:21:05;;;;;;;;;;;22.50;47.00;;;;;;474615;251;2189;-52
2022/11/02 01:23:06;;;;;;;;;;;22.50;47.10;;;;;;475013;251;1167;-53
2022/11/02 01:25:08;;;;;;;;;;;22.50;47.10;;;;;;474914;251;1322;-52
2022/11/02 01:27:09;;;;;;;;;;;22.50;47.10;;;;;;475053;251;1244;-52
2022/11/02 01:29:11;;;;;;;;;;;22.50;47.10;;;;;;474946;251;1264;-52
2022/11/02 01:31:12;;;;;;;;;;;22.50;47.10;;;;;;474964;251;1740;-52
2022/11/02 01:33:13;;;;;;;;;;;22.50;47.10;;;;;;474789;251;1387;-52
2022/11/02 01:35:15;;;;;;;;;;;22.50;47.10;;;;;;474641;251;1301;-52
2022/11/02 01:37:16;;;;;;;;;;;22.50;47.10;;;;;;474724;251;1990;-52
2022/11/02 01:39:17;;;;;;;;;;;22.50;47.10;;;;;;475076;251;1138;-52
2022/11/02 01:41:18;;;;;;;;;;;22.50;47.10;;;;;;474759;251;2137;-52
2022/11/02 01:43:20;;;;;;;;;;;22.50;47.10;;;;;;474853;251;1246;-52
2022/11/02 01:45:21;;;;;;;;;;;22.50;47.10;;;;;;475100;251;1281;-52
2022/11/02 01:47:22;;;;;;;;;;;22.50;47.10;;;;;;474824;251;1445;-52
2022/11/02 01:49:24;;;;;;;;;;;22.50;47.10;;;;;;474664;251;1198;-52
2022/11/02 01:51:25;;;;;;;;;;;22.50;47.10;;;;;;475109;251;1587;-53
2022/11/02 01:53:26;;;;;;;;;;;22.50;47.10;;;;;;475047;251;1375;-52
2022/11/02 01:55:28;;;;;;;;;;;22.50;47.10;;;;;;474642;251;1193;-52
2022/11/02 01:57:29;;;;;;;;;;;22.50;47.20;;;;;;475024;251;1343;-52
2022/11/02 01:59:31;;;;;;;;;;;22.50;47.20;;;;;;474680;251;2157;-52
2022/11/02 02:01:32;;;;;;;;;;;22.50;47.20;;;;;;475077;251;1173;-52
2022/11/02 02:03:33;;;;;;;;;;;22.50;47.10;;;;;;474697;251;1331;-52
2022/11/02 02:05:35;;;;;;;;;;;22.50;47.20;;;;;;474679;251;1247;-52
2022/11/02 02:07:36;;;;;;;;;;;22.50;47.10;;;;;;474744;251;1299;-52
2022/11/02 02:09:37;;;;;;;;;;;22.50;47.10;;;;;;475024;251;1192;-53
2022/11/02 02:11:39;;;;;;;;;;;22.50;47.10;;;;;;475118;251;1194;-52
2022/11/02 02:13:40;;;;;;;;;;;22.50;47.10;;;;;;474869;251;1226;-52
2022/11/02 02:15:41;;;;;;;;;;;22.50;47.10;;;;;;474879;251;1121;-52
2022/11/02 02:17:43;;;;;;;;;;;22.50;47.10;;;;;;474691;251;1127;-52
2022/11/02 02:19:44;;;;;;;;;;;22.50;47.10;;;;;;475065;251;2158;-52
2022/11/02 02:21:45;;;;;;;;;;;22.50;47.10;;;;;;475091;251;1233;-52
2022/11/02 02:23:47;;;;;;;;;;;22.50;47.10;;;;;;475095;251;1363;-52
2022/11/02 02:25:48;;;;;;;;;;;22.50;47.10;;;;;;475091;251;1227;-52
2022/11/02 02:27:49;;;;;;;;;;;22.50;47.10;;;;;;474938;251;1207;-52
2022/11/02 02:29:51;;;;;;;;;;;22.50;47.10;;;;;;474911;251;1184;-52
2022/11/02 02:31:52;;;;;;;;;;;22.50;47.10;;;;;;474876;251;1290;-52
2022/11/02 02:33:53;;;;;;;;;;;22.50;47.10;;;;;;475111;251;1230;-52
2022/11/02 02:35:55;;;;;;;;;;;22.50;47.10;;;;;;475061;251;1486;-52
2022/11/02 02:37:56;;;;;;;;;;;22.50;47.10;;;;;;474646;251;1216;-52
2022/11/02 02:39:57;;;;;;;;;;;22.50;47.20;;;;;;474681;251;2153;-52
2022/11/02 02:41:59;;;;;;;;;;;22.50;47.10;;;;;;474693;251;1255;-52
2022/11/02 02:44:00;;;;;;;;;;;22.50;47.10;;;;;;474677;251;1242;-52
2022/11/02 02:46:01;;;;;;;;;;;22.50;47.10;;;;;;474694;251;1240;-52
2022/11/02 02:48:03;;;;;;;;;;;22.50;47.10;;;;;;474681;251;1219;-52
2022/11/02 02:50:04;;;;;;;;;;;22.50;47.10;;;;;;474797;251;1261;-52
2022/11/02 02:52:05;;;;;;;;;;;22.50;47.20;;;;;;474658;251;1215;-52
2022/11/02 02:54:06;;;;;;;;;;;22.50;47.10;;;;;;474808;251;1216;-52
2022/11/02 02:56:08;;;;;;;;;;;22.50;47.10;;;;;;474687;251;1238;-52
2022/11/02 02:58:09;;;;;;;;;;;22.50;47.10;;;;;;475053;251;1237;-52
2022/11/02 03:00:11;;;;;;;;;;;22.50;47.20;;;;;;474930;251;2185;-52
2022/11/02 03:02:12;;;;;;;;;;;22.50;47.10;;;;;;474683;251;1221;-53
2022/11/02 03:04:13;;;;;;;;;;;22.50;47.10;;;;;;475002;251;1288;-52
2022/11/02 03:06:14;;;;;;;;;;;22.50;47.20;;;;;;474939;251;1375;-52
2022/11/02 03:08:16;;;;;;;;;;;22.50;47.20;;;;;;474742;251;1240;-52
2022/11/02 03:10:17;;;;;;;;;;;22.50;47.10;;;;;;474977;251;1267;-52
2022/11/02 03:12:18;;;;;;;;;;;22.50;47.10;;;;;;474684;251;1510;-52
2022/11/02 03:14:20;;;;;;;;;;;22.50;47.10;;;;;;474867;251;1218;-52
2022/11/02 03:16:21;;;;;;;;;;;22.50;47.10;;;;;;474689;251;1212;-52
2022/11/02 03:18:23;;;;;;;;;;;22.50;47.10;;;;;;474697;251;1108;-52
2022/11/02 03:20:24;;;;;;;;;;;22.50;47.10;;;;;;474759;251;2157;-52
2022/11/02 03:22:25;;;;;;;;;;;22.50;47.10;;;;;;475084;251;1359;-52
2022/11/02 03:24:27;;;;;;;;;;;22.50;47.10;;;;;;474685;251;1191;-52
2022/11/02 03:26:28;;;;;;;;;;;22.50;47.10;;;;;;474889;251;1194;-52
2022/11/02 03:28:29;;;;;;;;;;;22.50;47.20;;;;;;474733;251;1251;-52
2022/11/02 03:30:31;;;;;;;;;;;22.50;47.10;;;;;;475102;251;1249;-51
2022/11/02 03:32:32;;;;;;;;;;;22.50;47.20;;;;;;475096;251;1216;-52
2022/11/02 03:34:33;;;;;;;;;;;22.50;47.10;;;;;;475110;251;1186;-52
2022/11/02 03:36:34;;;;;;;;;;;22.50;47.20;;;;;;475104;251;1215;-52
2022/11/02 03:38:36;;;;;;;;;;;22.50;47.20;;;;;;474636;251;1276;-52
2022/11/02 03:40:37;;;;;;;;;;;22.50;47.20;;;;;;474643;251;2165;-51
2022/11/02 03:42:38;;;;;;;;;;;22.50;47.10;;;;;;474653;251;1335;-52
2022/11/02 03:44:40;;;;;;;;;;;22.50;47.10;;;;;;474652;251;1223;-52
2022/11/02 03:46:41;;;;;;;;;;;22.50;47.10;;;;;;475017;251;1335;-52
2022/11/02 03:48:42;;;;;;;;;;;22.50;47.10;;;;;;474986;251;1269;-52
2022/11/02 03:50:44;;;;;;;;;;;22.50;47.20;;;;;;475066;251;1249;-52
2022/11/02 03:52:45;;;;;;;;;;;22.50;47.20;;;;;;474636;251;1180;-51
2022/11/02 03:54:46;;;;;;;;;;;22.50;47.20;;;;;;474668;251;1203;-52
2022/11/02 03:56:48;;;;;;;;;;;22.50;47.20;;;;;;474668;251;1249;-52
2022/11/02 03:58:49;;;;;;;;;;;22.50;47.20;;;;;;475028;251;1349;-52
2022/11/02 04:00:51;;;;;;;;;;;22.50;47.20;;;;;;474721;251;2162;-52
2022/11/02 04:02:52;;;;;;;;;;;22.50;47.20;;;;;;474755;251;1854;-52
2022/11/02 04:04:53;;;;;;;;;;;22.50;47.20;;;;;;474921;251;1169;-52
2022/11/02 04:06:54;;;;;;;;;;;22.50;47.20;;;;;;474665;251;1243;-53
2022/11/02 04:08:56;;;;;;;;;;;22.50;47.10;;;;;;474851;251;1281;-53
2022/11/02 04:15:36;;;;;;;;;;;22.50;47.20;;;;;;474715;251;1269;-52
2022/11/02 04:19:56;;;;;;;;;;;22.50;47.20;;;;;;475099;251;1672;-52
2022/11/02 04:26:36;;;;;;;;;;;22.50;47.20;;;;;;475095;251;1556;-52
2022/11/02 04:28:38;;;;;;;;;;;22.50;47.20;;;;;;475087;251;1232;-52
2022/11/02 04:30:39;;;;;;;;;;;22.50;47.20;;;;;;474737;251;1397;-52
2022/11/02 04:35:00;;;;;;;;;;;22.50;47.20;;;;;;475107;251;1366;-52
2022/11/02 04:38:38;;;;;;;;;;;22.50;47.20;;;;;;475102;251;1205;-52
2022/11/02 04:39:03;;;;;;;;;;;22.50;47.20;;;;;;473256;251;1194;-52
2022/11/02 04:43:23;;;;;;;;;;;22.50;47.10;;;;;;474685;251;1215;-52
2022/11/02 04:45:25;;;;;;;;;;;22.50;47.20;;;;;;474861;251;1337;-52
2022/11/02 04:47:26;;;;;;;;;;;22.50;47.10;;;;;;475093;251;1263;-52
2022/11/02 04:49:27;;;;;;;;;;;22.50;47.20;;;;;;475034;251;1233;-52
2022/11/02 04:51:29;;;;;;;;;;;22.50;47.20;;;;;;475114;251;1216;-52
2022/11/02 04:53:30;;;;;;;;;;;22.50;47.30;;;;;;474696;251;1225;-52
2022/11/02 04:55:31;;;;;;;;;;;22.50;47.20;;;;;;475112;251;1248;-52
2022/11/02 04:57:33;;;;;;;;;;;22.50;47.20;;;;;;474799;251;1205;-52
2022/11/02 04:59:34;;;;;;;;;;;22.50;47.20;;;;;;474728;251;1428;-52
2022/11/02 05:01:35;;;;;;;;;;;22.50;47.20;;;;;;474647;251;2146;-52
2022/11/02 05:03:37;;;;;;;;;;;22.50;47.10;;;;;;474932;251;1338;-52
2022/11/02 05:05:38;;;;;;;;;;;22.50;47.10;;;;;;474863;251;1322;-52
2022/11/02 05:07:39;;;;;;;;;;;22.50;47.10;;;;;;475090;251;1241;-52
2022/11/02 05:09:41;;;;;;;;;;;22.50;47.20;;;;;;474834;251;1259;-52
2022/11/02 05:11:43;;;;;;;;;;;22.50;47.20;;;;;;474930;251;1246;-52
2022/11/02 05:13:44;;;;;;;;;;;22.50;47.20;;;;;;474672;251;1328;-52
2022/11/02 05:15:45;;;;;;;;;;;22.50;47.20;;;;;;474660;251;1189;-52
2022/11/02 05:17:47;;;;;;;;;;;22.50;47.10;;;;;;474960;251;1421;-52
2022/11/02 05:19:48;;;;;;;;;;;22.50;47.20;;;;;;475081;251;1308;-52
2022/11/02 05:21:49;;;;;;;;;;;22.50;47.20;;;;;;474825;251;2179;-52
2022/11/02 05:23:51;;;;;;;;;;;22.50;47.20;;;;;;474863;251;1279;-52
2022/11/02 05:25:52;;;;;;;;;;;22.50;47.20;;;;;;474620;251;1260;-52
2022/11/02 05:27:53;;;;;;;;;;;22.50;47.20;;;;;;475028;251;1194;-52
2022/11/02 05:29:55;;;;;;;;;;;22.50;47.20;;;;;;474643;251;1240;-52
2022/11/02 05:31:56;;;;;;;;;;;22.50;47.20;;;;;;475087;251;1255;-52
2022/11/02 05:33:57;;;;;;;;;;;22.50;47.10;;;;;;475029;250;1248;-52
2022/11/02 05:35:58;;;;;;;;;;;22.50;47.10;;;;;;475108;251;1202;-52
2022/11/02 05:38:00;;;;;;;;;;;22.50;47.10;;;;;;474710;251;1301;-52
2022/11/02 05:40:01;;;;;;;;;;;22.60;47.20;;;;;;474855;251;1242;-52
2022/11/02 05:42:03;;;;;;;;;;;22.50;47.20;;;;;;475069;251;2161;-52
2022/11/02 05:44:04;;;;;;;;;;;22.50;47.20;;;;;;474720;251;1576;-52
2022/11/02 05:46:05;;;;;;;;;;;22.50;47.20;;;;;;474653;251;1201;-52
2022/11/02 05:48:07;;;;;;;;;;;22.50;47.20;;;;;;474618;251;1191;-52
2022/11/02 05:50:09;;;;;;;;;;;22.50;47.20;;;;;;475076;251;1265;-52
2022/11/02 05:52:10;;;;;;;;;;;22.50;47.20;;;;;;474594;251;2102;-52
2022/11/02 05:54:11;;;;;;;;;;;22.50;47.20;;;;;;475118;251;1225;-52
2022/11/02 05:56:13;;;;;;;;;;;22.50;47.20;;;;;;474714;251;1347;-52
2022/11/02 05:58:13;;;;;;;;;;;22.50;47.20;;;;;;474461;251;1893;-52
2022/11/02 06:00:15;;;;;;;;;;;22.50;47.20;;;;;;474543;251;1396;-52
2022/11/02 06:02:16;;;;;;;;;;;22.50;47.20;;;;;;474680;251;2160;-52
2022/11/02 06:04:18;;;;;;;;;;;22.50;47.20;;;;;;475050;251;1161;-52
2022/11/02 06:06:19;;;;;;;;;;;22.50;47.20;;;;;;474918;251;1256;-52
2022/11/02 06:08:20;;;;;;;;;;;22.50;47.20;;;;;;474818;251;2430;-52
2022/11/02 06:10:22;;;;;;;;;;;22.50;47.30;;;;;;474663;251;1209;-52
2022/11/02 06:12:23;;;;;;;;;;;22.50;47.20;;;;;;474961;251;1244;-52
2022/11/02 06:14:24;;;;;;;;;;;22.50;47.30;;;;;;474839;251;1274;-52
2022/11/02 06:16:26;;;;;;;;;;;22.50;47.20;;;;;;474737;251;1217;-52
2022/11/02 06:18:27;;;;;;;;;;;22.50;47.20;;;;;;474660;251;1201;-52
2022/11/02 06:20:28;;;;;;;;;;;22.50;47.20;;;;;;474896;251;1236;-51
2022/11/02 06:22:30;;;;;;;;;;;22.50;47.30;;;;;;474686;251;2176;-52
2022/11/02 06:24:31;;;;;;;;;;;22.50;47.30;;;;;;474458;251;1281;-52
2022/11/02 06:26:32;;;;;;;;;;;22.50;47.30;;;;;;474440;251;1345;-52
2022/11/02 06:28:34;;;;;;;;;;;22.50;47.20;;;;;;474879;251;1320;-53
2022/11/02 06:30:35;;;;;;;;;;;22.50;47.20;;;;;;474691;251;1199;-52
2022/11/02 06:32:36;;;;;;;;;;;22.50;47.20;;;;;;474988;251;1199;-52
2022/11/02 06:34:38;;;;;;;;;;;22.50;47.20;;;;;;474828;251;1208;-52
2022/11/02 06:36:39;;;;;;;;;;;22.50;47.20;;;;;;474905;251;1196;-52
2022/11/02 06:38:41;;;;;;;;;;;22.50;47.20;;;;;;474905;251;1270;-52
2022/11/02 06:40:42;;;;;;;;;;;22.50;47.20;;;;;;474921;251;1161;-52
2022/11/02 06:42:44;;;;;;;;;;;22.50;47.20;;;;;;474512;251;2192;-52
2022/11/02 06:44:45;;;;;;;;;;;22.50;47.20;;;;;;474658;251;1240;-53
2022/11/02 06:46:46;;;;;;;;;;;22.50;47.20;;;;;;474656;251;1231;-52
2022/11/02 06:48:48;;;;;;;;;;;22.50;47.20;;;;;;474787;251;1226;-52
2022/11/02 06:50:49;;;;;;;;;;;22.50;47.30;;;;;;474549;251;1339;-52
2022/11/02 06:52:50;;;;;;;;;;;22.50;47.20;;;;;;474493;251;1337;-52
2022/11/02 06:54:51;;;;;;;;;;;22.50;47.30;;;;;;474699;251;1249;-51
2022/11/02 06:56:53;;;;;;;;;;;22.50;47.30;;;;;;474594;251;1286;-52
2022/11/02 06:58:54;;;;;;;;;;;22.50;47.30;;;;;;474533;251;1713;-52
2022/11/02 07:00:55;;;;;;;;;;;22.50;47.20;;;;;;474533;251;1243;-52
2022/11/02 07:02:57;;;;;;;;;;;22.50;47.20;;;;;;474565;251;2197;-52
2022/11/02 07:04:58;;;;;;;;;;;22.50;47.20;;;;;;474981;251;1198;-52
2022/11/02 07:06:59;;;;;;;;;;;22.50;47.20;;;;;;474840;251;1314;-52
2022/11/02 07:09:01;;;;;;;;;;;22.50;47.20;;;;;;474699;251;1256;-52
2022/11/02 07:11:02;;;;;;;;;;;22.50;47.20;;;;;;474517;251;1218;-52
2022/11/02 07:13:03;;;;;;;;;;;22.50;47.20;;;;;;474578;251;1196;-52
2022/11/02 07:15:05;;;;;;;;;;;22.50;47.10;;;;;;474743;251;1227;-51
2022/11/02 07:17:06;;;;;;;;;;;22.50;47.10;;;;;;474465;251;1254;-52
2022/11/02 07:19:08;;;;;;;;;;;22.50;47.10;;;;;;474533;251;1144;-52
2022/11/02 07:21:10;;;;;;;;;;;22.60;47.10;;;;;;474508;251;1176;-52
2022/11/02 07:23:11;;;;;;;;;;;22.50;47.10;;;;;;474486;251;2160;-52
2022/11/02 07:25:12;;;;;;;;;;;22.60;47.10;;;;;;474508;251;1314;-52
2022/11/02 07:27:14;;;;;;;;;;;22.60;47.10;;;;;;474698;251;1632;-52
2022/11/02 07:29:15;;;;;;;;;;;22.60;47.10;;;;;;474511;251;1198;-52
2022/11/02 07:31:16;;;;;;;;;;;22.60;47.10;;;;;;474545;251;1288;-52
2022/11/02 07:33:17;;;;;;;;;;;22.60;47.10;;;;;;474498;251;1215;-52
2022/11/02 07:35:19;;;;;;;;;;;22.60;47.10;;;;;;474895;251;1385;-52
2022/11/02 07:37:20;;;;;;;;;;;22.50;47.00;;;;;;474553;251;1220;-52
2022/11/02 07:39:21;;;;;;;;;;;22.50;47.10;;;;;;474527;251;1241;-52
2022/11/02 07:41:23;;;;;;;;;;;22.60;47.10;;;;;;474443;251;1287;-52
2022/11/02 07:43:24;;;;;;;;;;;22.50;47.10;;;;;;474427;251;2126;-52
2022/11/02 07:45:26;;;;;;;;;;;22.50;47.10;;;;;;474374;251;1226;-52
2022/11/02 07:47:27;;;;;;;;;;;22.60;47.10;;;;;;474341;251;2004;-52
2022/11/02 07:49:28;;;;;;;;;;;22.60;47.10;;;;;;474484;251;1262;-52
2022/11/02 07:51:29;;;;;;;;;;;22.60;47.10;;;;;;474599;251;1286;-52
2022/11/02 07:53:31;;;;;;;;;;;22.60;47.10;;;;;;474526;251;1307;-52
2022/11/02 07:55:32;;;;;;;;;;;22.50;47.10;;;;;;474602;251;1317;-52
2022/11/02 07:57:34;;;;;;;;;;;22.60;47.10;;;;;;474230;251;1301;-52
2022/11/02 07:59:35;;;;;;;;;;;22.60;47.10;;;;;;474543;251;1385;-51
2022/11/02 08:01:37;;;;;;;;;;;22.60;47.10;;;;;;474547;251;2173;-52
2022/11/02 08:03:38;;;;;;;;;;;22.60;47.10;;;;;;474543;251;1151;-52
2022/11/02 08:05:39;;;;;;;;;;;22.50;47.10;;;;;;474550;251;1334;-52
2022/11/02 08:07:40;;;;;;;;;;;22.60;47.20;;;;;;474438;251;1359;-52
2022/11/02 08:09:42;;;;;;;;;;;22.60;47.20;;;;;;474454;251;1195;-52
2022/11/02 08:11:43;;;;;;;;;;;22.60;47.20;;;;;;474200;251;1295;-52
2022/11/02 08:13:45;;;;;;;;;;;22.60;47.20;;;;;;474261;251;1246;-52
2022/11/02 08:15:46;;;;;;;;;;;22.50;47.10;;;;;;474281;251;1187;-52
2022/11/02 08:17:47;;;;;;;;;;;22.60;47.20;;;;;;474371;251;1235;-52
2022/11/02 08:19:48;;;;;;;;;;;22.60;47.20;;;;;;474360;251;1290;-52
2022/11/02 08:21:50;;;;;;;;;;;22.60;47.20;;;;;;474469;251;2153;-52
2022/11/02 08:23:51;;;;;;;;;;;22.50;47.10;;;;;;474520;251;1266;-52
2022/11/02 08:25:52;;;;;;;;;;;22.60;47.20;;;;;;474223;251;1170;-52
2022/11/02 08:27:54;;;;;;;;;;;22.60;47.20;;;;;;474171;251;1157;-52
2022/11/02 08:29:55;;;;;;;;;;;22.60;47.20;;;;;;474329;251;1197;-52
2022/11/02 08:31:56;;;;;;;;;;;22.60;47.20;;;;;;474373;251;1241;-52
2022/11/02 08:33:58;;;;;;;;;;;22.60;47.20;;;;;;474537;251;1301;-53
2022/11/02 08:35:59;;;;;;;;;;;22.60;47.20;;;;;;474349;251;1356;-53
2022/11/02 08:38:01;;;;;;;;;;;22.60;47.20;;;;;;474363;251;1577;-53
2022/11/02 08:40:02;;;;;;;;;;;22.60;47.20;;;;;;474510;251;1717;-53
2022/11/02 08:42:04;;;;;;;;;;;22.60;47.20;;;;;;474145;251;2201;-52
2022/11/02 08:44:05;;;;;;;;;;;22.60;47.20;;;;;;474384;251;1122;-53
2022/11/02 08:46:06;;;;;;;;;;;22.60;47.20;;;;;;474134;251;1277;-52
2022/11/02 08:48:08;;;;;;;;;;;22.60;47.20;;;;;;474439;251;1227;-52
2022/11/02 08:50:09;;;;;;;;;;;22.60;47.20;;;;;;474768;251;1179;-53
2022/11/02 08:52:10;;;;;;;;;;;22.60;47.20;;;;;;474423;251;1199;-53
2022/11/02 08:54:12;;;;;;;;;;;22.60;47.20;;;;;;474226;251;1291;-53
2022/11/02 08:56:13;;;;;;;;;;;22.60;47.20;;;;;;474214;251;1246;-52
2022/11/02 08:58:15;;;;;;;;;;;22.60;47.10;;;;;;474356;251;1230;-53
2022/11/02 09:00:16;;;;;;;;;;;22.60;47.00;;;;;;474256;251;1260;-53
2022/11/02 09:02:17;;;;;;;;;;;22.60;46.90;;;;;;474421;251;2204;-52
2022/11/02 09:04:19;;;;;;;;;;;22.60;46.90;;;;;;474360;251;1257;-53
2022/11/02 09:06:20;;;;;;;;;;;22.60;46.70;;;;;;474436;251;1113;-53
2022/11/02 09:08:21;;;;;;;;;;;22.70;46.60;;;;;;473938;251;1199;-53
2022/11/02 09:10:23;;;;;;;;;;;22.70;46.40;;;;;;474181;251;1150;-53
2022/11/02 09:12:24;;;;;;;;;;;22.70;46.40;;;;;;474470;251;1174;-53
2022/11/02 09:14:25;;;;;;;;;;;22.70;46.20;;;;;;474281;251;1271;-53
2022/11/02 09:16:27;;;;;;;;;;;22.70;46.10;;;;;;474347;251;1160;-53
2022/11/02 09:18:28;;;;;;;;;;;22.70;46.10;;;;;;474542;251;1366;-52
2022/11/02 09:20:29;;;;;;;;;;;22.70;46.00;;;;;;474445;251;1209;-52
2022/11/02 09:22:31;;;;;;;;;;;22.70;46.00;;;;;;474260;251;2161;-53
2022/11/02 09:24:32;;;;;;;;;;;22.70;45.90;;;;;;474219;251;1246;-53
2022/11/02 09:26:33;;;;;;;;;;;22.80;45.90;;;;;;474358;251;1195;-53
2022/11/02 09:28:35;;;;;;;;;;;22.80;45.80;;;;;;474386;251;1316;-53
2022/11/02 09:30:36;;;;;;;;;;;22.70;45.70;;;;;;474240;251;1201;-53
2022/11/02 09:32:38;;;;;;;;;;;22.80;45.60;;;;;;474402;251;1254;-52
2022/11/02 09:34:39;;;;;;;;;;;22.80;45.60;;;;;;474312;251;1147;-52
2022/11/02 09:36:40;;;;;;;;;;;22.80;45.60;;;;;;474661;251;1243;-53
2022/11/02 09:38:42;;;;;;;;;;;22.80;45.40;;;;;;474358;251;1245;-52
2022/11/02 09:40:43;;;;;;;;;;;22.80;45.40;;;;;;474561;251;1244;-53
2022/11/02 09:42:44;;;;;;;;;;;22.80;45.40;;;;;;474053;251;2165;-53
2022/11/02 09:44:46;;;;;;;;;;;22.80;45.40;;;;;;474364;251;1219;-53
2022/11/02 09:46:47;;;;;;;;;;;22.80;45.40;;;;;;474366;251;1218;-52
2022/11/02 09:48:48;;;;;;;;;;;22.80;45.30;;;;;;474427;251;1300;-53
2022/11/02 09:50:50;;;;;;;;;;;22.80;45.20;;;;;;474429;251;1263;-52
2022/11/02 09:52:51;;;;;;;;;;;22.80;45.10;;;;;;474327;251;1155;-53
2022/11/02 09:54:52;;;;;;;;;;;22.80;45.20;;;;;;474267;251;1202;-53
2022/11/02 09:56:54;;;;;;;;;;;22.80;45.10;;;;;;474328;251;1399;-52
2022/11/02 09:58:55;;;;;;;;;;;22.80;45.00;;;;;;474385;251;1149;-52
2022/11/02 10:00:56;;;;;;;;;;;22.80;44.90;;;;;;474432;251;1346;-53
2022/11/02 10:02:58;;;;;;;;;;;22.80;44.80;;;;;;474575;251;2154;-53
2022/11/02 10:05:00;;;;;;;;;;;22.80;44.80;;;;;;474365;251;1227;-52
2022/11/02 10:07:01;;;;;;;;;;;22.80;44.70;;;;;;474262;251;1916;-53
2022/11/02 10:09:02;;;;;;;;;;;22.80;44.70;;;;;;474322;251;1216;-52
2022/11/02 10:11:03;;;;;;;;;;;22.80;44.70;;;;;;474485;251;1184;-52
2022/11/02 10:13:05;;;;;;;;;;;22.80;44.60;;;;;;474336;251;1161;-52
2022/11/02 10:15:06;;;;;;;;;;;22.80;44.60;;;;;;474369;251;1162;-52
2022/11/02 10:17:07;;;;;;;;;;;22.80;44.60;;;;;;474507;251;1220;-52
2022/11/02 10:19:09;;;;;;;;;;;22.90;44.50;;;;;;474204;251;1235;-51
2022/11/02 10:21:10;;;;;;;;;;;22.90;44.50;;;;;;474323;251;1085;-52
2022/11/02 10:23:11;;;;;;;;;;;22.90;44.40;;;;;;474193;251;2196;-53
2022/11/02 10:25:13;;;;;;;;;;;22.90;44.30;;;;;;474320;251;1174;-52
2022/11/02 10:27:14;;;;;;;;;;;22.90;44.30;;;;;;474291;251;1232;-52
2022/11/02 10:29:15;;;;;;;;;;;22.90;44.30;;;;;;474304;251;1180;-53
2022/11/02 10:31:17;;;;;;;;;;;22.90;44.20;;;;;;474131;251;1273;-52
2022/11/02 10:33:18;;;;;;;;;;;22.90;44.10;;;;;;474632;251;1292;-51
2022/11/02 10:35:19;;;;;;;;;;;22.90;44.10;;;;;;474413;251;1405;-53
2022/11/02 10:37:21;;;;;;;;;;;23.00;44.10;;;;;;474358;251;1252;-53
2022/11/02 10:39:22;;;;;;;;;;;22.90;44.00;;;;;;474254;251;1953;-53
2022/11/02 10:41:23;;;;;;;;;;;22.90;44.00;;;;;;474389;251;1264;-53
2022/11/02 10:43:25;;;;;;;;;;;22.90;44.00;;;;;;474255;251;2149;-53
2022/11/02 10:45:26;;;;;;;;;;;22.90;44.00;;;;;;474722;251;1213;-52
2022/11/02 10:47:27;;;;;;;;;;;23.00;43.90;;;;;;474246;251;1266;-52
2022/11/02 10:49:29;;;;;;;;;;;23.00;43.80;;;;;;474306;251;1860;-53
2022/11/02 10:51:30;;;;;;;;;;;22.90;43.80;;;;;;474503;251;1169;-53
2022/11/02 10:53:31;;;;;;;;;;;22.90;43.80;;;;;;474528;251;1175;-53
2022/11/02 10:55:33;;;;;;;;;;;22.90;43.80;;;;;;474376;251;1240;-53
2022/11/02 10:57:34;;;;;;;;;;;23.00;43.80;;;;;;474268;251;1147;-53
2022/11/02 10:59:35;;;;;;;;;;;22.90;43.70;;;;;;474367;251;1354;-52
2022/11/02 11:01:37;;;;;;;;;;;23.00;43.70;;;;;;474486;251;1287;-53
2022/11/02 11:03:38;;;;;;;;;;;22.90;43.60;;;;;;474358;251;2189;-53
2022/11/02 11:05:40;;;;;;;;;;;23.00;43.60;;;;;;474507;251;1278;-53
2022/11/02 11:07:41;;;;;;;;;;;22.90;43.60;;;;;;474335;251;1317;-53
2022/11/02 11:09:42;;;;;;;;;;;22.90;43.50;;;;;;474444;251;1172;-52
2022/11/02 11:11:44;;;;;;;;;;;22.90;43.50;;;;;;474451;251;1178;-52
2022/11/02 11:13:45;;;;;;;;;;;22.90;43.40;;;;;;474453;251;1180;-54
2022/11/02 11:15:46;;;;;;;;;;;22.90;43.50;;;;;;474427;251;1187;-53
2022/11/02 11:17:48;;;;;;;;;;;22.90;43.70;;;;;;474425;251;1250;-53
2022/11/02 11:19:49;;;;;;;;;;;22.80;43.90;;;;;;474435;251;1225;-53
2022/11/02 11:21:51;;;;;;;;;;;22.90;44.10;;;;;;474443;251;1239;-53
2022/11/02 11:23:52;;;;;;;;;;;22.80;44.20;;;;;;474675;251;2200;-53
2022/11/02 11:25:53;;;;;;;;;;;22.80;44.40;;;;;;474307;251;1155;-53
2022/11/02 11:27:55;;;;;;;;;;;22.80;44.50;;;;;;474189;251;1209;-53
2022/11/02 11:29:56;;;;;;;;;;;22.80;44.50;;;;;;474429;251;1308;-52
2022/11/02 11:31:57;;;;;;;;;;;22.80;44.60;;;;;;474332;251;1231;-53
2022/11/02 11:34:00;;;;;;;;;;;22.80;44.60;;;;;;474592;251;1411;-53
2022/11/02 11:36:00;;;;;;;;;;;22.80;44.70;;;;;;474259;251;1846;-53
2022/11/02 11:38:02;;;;;;;;;;;22.80;44.70;;;;;;474551;251;1233;-53
2022/11/02 11:40:03;;;;;;;;;;;22.80;44.80;;;;;;474513;251;1174;-53
2022/11/02 11:42:04;;;;;;;;;;;22.80;44.80;;;;;;474407;251;1269;-53
2022/11/02 11:44:06;;;;;;;;;;;22.80;44.80;;;;;;474446;251;2166;-53
2022/11/02 11:46:07;;;;;;;;;;;22.70;44.80;;;;;;474321;251;1187;-53
2022/11/02 11:48:08;;;;;;;;;;;22.70;44.80;;;;;;474282;251;1351;-53
2022/11/02 11:50:10;;;;;;;;;;;22.70;44.80;;;;;;474280;251;1299;-52
2022/11/02 11:52:11;;;;;;;;;;;22.80;44.90;;;;;;474409;251;1269;-52
2022/11/02 11:54:12;;;;;;;;;;;22.70;44.80;;;;;;474350;251;1315;-53
2022/11/02 11:56:14;;;;;;;;;;;22.70;44.90;;;;;;474309;251;1219;-53
2022/11/02 11:58:15;;;;;;;;;;;22.70;45.00;;;;;;474138;251;1354;-53
2022/11/02 12:00:17;;;;;;;;;;;22.70;45.00;;;;;;474335;251;1274;-53
2022/11/02 12:02:18;;;;;;;;;;;22.70;45.00;;;;;;474433;251;1719;-53
2022/11/02 12:04:19;;;;;;;;;;;22.70;45.00;;;;;;474238;251;2150;-52
2022/11/02 12:06:21;;;;;;;;;;;22.70;45.00;;;;;;474296;251;1283;-53
2022/11/02 12:08:22;;;;;;;;;;;22.70;45.10;;;;;;474204;251;1205;-53
2022/11/02 12:10:23;;;;;;;;;;;22.70;45.10;;;;;;474317;251;1228;-52
2022/11/02 12:12:25;;;;;;;;;;;22.70;45.10;;;;;;474335;251;1329;-53